Captain Johnny — WDD6683 — position and weather

sailwx.info

Track history (hours):
 
Tides and Currents Weather Stations Pressure Air Temp Water Temp Dewpoint Dewpoint Depression Visibility Wind Speed Wind Dir Waves Ship Positions

Captain Johnny

Owner: Captain Johnny, Inc., Deltaville, VA. More information available from US FCC via Universal Licensing System and Coast Guard Vessel Documentation Center.

Last reported at 2017-Oct-10 09:52 UTC. Time now 2017-Oct-23 06:02 UTC.
Position N 37°55' W 076°51'.
Warning: this ship's position is 12 days out of date.

; draft 3.5 m.

Type: Tug. MMSI: 367176230.

Date/timePositionNaut miles runAvg speedWind from/ knotsBaromVisibWave heightAir tempDewpointWater temp
2017-Oct-10 09:52N 37°55' W 076°51'0 0.1
2017-Oct-10 09:28N 37°55' W 076°51'58 2.3
2017-Oct-09 08:31N 38°19' W 075°45'0 6.3
2017-Oct-09 08:30N 38°19' W 075°45'9 6.0
2017-Oct-09 06:58N 38°13' W 075°54'4 7.0
2017-Oct-09 06:21N 38°11' W 075°59'3 7.8
2017-Oct-09 05:55N 38°08' W 075°59'3 7.4
2017-Oct-09 05:30N 38°05' W 075°58'4 7.2
2017-Oct-09 04:58N 38°01' W 075°56'17 0.7
2017-Oct-08 05:47N 37°45' W 076°03'18 5.8
2017-Oct-08 02:40N 38°02' W 075°56'1 7.8
2017-Oct-08 02:30N 38°03' W 075°57'9 5.8
2017-Oct-08 00:56N 38°12' W 075°56'8 7.5
2017-Oct-07 23:52N 38°16' W 075°47'12 1.5
2017-Oct-07 15:47N 38°08' W 075°59'19 7.0
2017-Oct-07 13:05N 37°49' W 075°57'2 7.3
2017-Oct-07 12:52N 37°48' W 075°58'3 6.7
2017-Oct-07 12:26N 37°45' W 075°60'3 6.6
2017-Oct-07 12:00N 37°43' W 076°02'13 6.6
2017-Oct-07 10:05N 37°35' W 076°14'1 7.0
2017-Oct-07 09:57N 37°35' W 076°15'7 7.3
2017-Oct-07 08:58N 37°37' W 076°24'0 0.3
2017-Oct-07 08:30N 37°37' W 076°23'0 0.1
2017-Oct-07 08:00N 37°37' W 076°23'1 1.3
2017-Oct-07 07:30N 37°37' W 076°23'3 6.6
2017-Oct-07 07:00N 37°36' W 076°19'4 6.9
2017-Oct-07 06:29N 37°35' W 076°14'3 5.7
2017-Oct-07 06:00N 37°38' W 076°13'3 6.2
2017-Oct-07 05:30N 37°41' W 076°12'3 6.3
2017-Oct-07 05:00N 37°44' W 076°12'3 6.2
2017-Oct-07 04:30N 37°47' W 076°12'3 6.1
2017-Oct-07 04:00N 37°50' W 076°11'3 5.7
2017-Oct-07 03:30N 37°53' W 076°11'8 6.5
2017-Oct-07 02:13N 37°58' W 076°19'2 7.3
2017-Oct-07 01:56N 37°60' W 076°21'3 7.3
2017-Oct-07 01:29N 38°01' W 076°25'4 7.3
2017-Oct-07 00:59N 38°02' W 076°29'3 6.1
2017-Oct-07 00:30N 38°02' W 076°33'1 2.7
2017-Oct-06 23:58N 38°02' W 076°34'0 0.0
2017-Oct-06 23:29N 38°02' W 076°35'2 3.9
2017-Oct-06 23:00N 38°02' W 076°32'4 7.1
2017-Oct-06 22:29N 38°02' W 076°28'7 7.2
2017-Oct-06 21:30N 38°01' W 076°19'30 6.2
2017-Oct-06 16:39N 38°17' W 075°46'9 1.3
2017-Oct-06 09:49N 38°22' W 075°36'0 0.0
2017-Oct-06 09:28N 38°22' W 075°36'0 0.0
2017-Oct-06 08:59N 38°22' W 075°36'0 0.2
2017-Oct-06 08:29N 38°22' W 075°36'0 0.3
2017-Oct-06 07:51N 38°22' W 075°36'0 0.0
2017-Oct-06 07:30N 38°22' W 075°36'0 0.0
2017-Oct-06 07:00N 38°22' W 075°36'0 0.0
2017-Oct-06 06:30N 38°22' W 075°36'0 0.0
2017-Oct-06 06:00N 38°22' W 075°36'0 0.0
2017-Oct-06 05:30N 38°22' W 075°36'0 0.0
2017-Oct-06 04:38N 38°22' W 075°36'0 0.0
2017-Oct-06 04:30N 38°22' W 075°36'0 0.0
2017-Oct-06 04:00N 38°22' W 075°36'0 0.0
2017-Oct-06 03:29N 38°22' W 075°36'5 1.6
2017-Oct-06 00:02N 38°21' W 075°43'1 2.0
2017-Oct-05 23:43N 38°20' W 075°44'1 2.9
2017-Oct-05 23:23N 38°19' W 075°44'2 4.2
2017-Oct-05 22:59N 38°18' W 075°46'3 4.4
2017-Oct-05 22:24N 38°16' W 075°47'14 4.7
2017-Oct-05 19:33N 38°06' W 075°58'1 7.2
2017-Oct-05 19:23N 38°04' W 075°58'29 5.3
2017-Oct-05 13:53N 37°42' W 076°21'0 0.2
2017-Oct-05 12:27N 37°42' W 076°21'4 1.2
2017-Oct-05 08:50N 37°39' W 076°17'2 7.5
2017-Oct-05 08:30N 37°38' W 076°15'3 5.3
2017-Oct-05 08:00N 37°38' W 076°11'6 7.7
2017-Oct-05 07:13N 37°41' W 076°05'2 7.7
2017-Oct-05 07:00N 37°43' W 076°04'4 7.8
2017-Oct-05 06:27N 37°46' W 076°00'3 7.8
2017-Oct-05 06:00N 37°49' W 075°57'4 7.7
2017-Oct-05 05:30N 37°52' W 075°57'4 7.6
2017-Oct-05 04:58N 37°56' W 075°57'4 7.1
2017-Oct-05 04:22N 38°01' W 075°55'3 7.3
2017-Oct-05 04:00N 38°03' W 075°57'4 7.2
2017-Oct-05 03:23N 38°07' W 075°59'3 7.3
2017-Oct-05 03:00N 38°10' W 075°59'3 6.0
2017-Oct-05 02:31N 38°12' W 075°56'3 6.6
2017-Oct-05 02:00N 38°13' W 075°52'3 6.5
2017-Oct-05 01:30N 38°15' W 075°49'3 5.7
2017-Oct-05 00:59N 38°17' W 075°46'3 5.5
2017-Oct-05 00:31N 38°19' W 075°44'3 5.1
2017-Oct-04 23:51N 38°20' W 075°40'2 5.5
2017-Oct-04 23:25N 38°21' W 075°37'2 2.9
2017-Oct-04 22:54N 38°22' W 075°36'26 3.2
2017-Oct-04 14:55N 38°02' W 075°56'3 7.2
2017-Oct-04 14:28N 37°58' W 075°56'29 2.0
2017-Oct-04 00:13N 38°02' W 076°32'2 8.2
2017-Oct-03 23:58N 38°02' W 076°30'4 8.3
2017-Oct-03 23:30N 38°02' W 076°25'5 8.0
2017-Oct-03 22:55N 38°01' W 076°19'4 0.1
2017-Oct-02 13:28N 37°58' W 076°17'4 7.9
2017-Oct-02 12:55N 38°00' W 076°22'3 7.3
2017-Oct-02 12:31N 38°01' W 076°25'3 6.9
2017-Oct-02 12:01N 38°02' W 076°30'3 5.6
2017-Oct-02 11:30N 38°02' W 076°33'  
Track history (hours):
 
Tides and Currents Weather Stations Pressure Air Temp Water Temp Dewpoint Dewpoint Depression Visibility Wind Speed Wind Dir Waves Ship Positions

Captain Johnny

Owner: Captain Johnny, Inc., Deltaville, VA. More information available from US FCC via Universal Licensing System and Coast Guard Vessel Documentation Center.

Last reported at 2017-Oct-10 09:52 UTC. Time now 2017-Oct-23 06:02 UTC.
Position N 37°55' W 076°51'.
Warning: this ship's position is 12 days out of date.

; draft 3.5 m.

Type: Tug. MMSI: 367176230.

Date/timePositionNaut miles runAvg speedWind from/ knotsBaromVisibWave heightAir tempDewpointWater temp
2017-Oct-10 09:52N 37°55' W 076°51'0 0.1
2017-Oct-10 09:28N 37°55' W 076°51'58 2.3
2017-Oct-09 08:31N 38°19' W 075°45'0 6.3
2017-Oct-09 08:30N 38°19' W 075°45'9 6.0
2017-Oct-09 06:58N 38°13' W 075°54'4 7.0
2017-Oct-09 06:21N 38°11' W 075°59'3 7.8
2017-Oct-09 05:55N 38°08' W 075°59'3 7.4
2017-Oct-09 05:30N 38°05' W 075°58'4 7.2
2017-Oct-09 04:58N 38°01' W 075°56'17 0.7
2017-Oct-08 05:47N 37°45' W 076°03'18 5.8
2017-Oct-08 02:40N 38°02' W 075°56'1 7.8
2017-Oct-08 02:30N 38°03' W 075°57'9 5.8
2017-Oct-08 00:56N 38°12' W 075°56'8 7.5
2017-Oct-07 23:52N 38°16' W 075°47'12 1.5
2017-Oct-07 15:47N 38°08' W 075°59'19 7.0
2017-Oct-07 13:05N 37°49' W 075°57'2 7.3
2017-Oct-07 12:52N 37°48' W 075°58'3 6.7
2017-Oct-07 12:26N 37°45' W 075°60'3 6.6
2017-Oct-07 12:00N 37°43' W 076°02'13 6.6
2017-Oct-07 10:05N 37°35' W 076°14'1 7.0
2017-Oct-07 09:57N 37°35' W 076°15'7 7.3
2017-Oct-07 08:58N 37°37' W 076°24'0 0.3
2017-Oct-07 08:30N 37°37' W 076°23'0 0.1
2017-Oct-07 08:00N 37°37' W 076°23'1 1.3
2017-Oct-07 07:30N 37°37' W 076°23'3 6.6
2017-Oct-07 07:00N 37°36' W 076°19'4 6.9
2017-Oct-07 06:29N 37°35' W 076°14'3 5.7
2017-Oct-07 06:00N 37°38' W 076°13'3 6.2
2017-Oct-07 05:30N 37°41' W 076°12'3 6.3
2017-Oct-07 05:00N 37°44' W 076°12'3 6.2
2017-Oct-07 04:30N 37°47' W 076°12'3 6.1
2017-Oct-07 04:00N 37°50' W 076°11'3 5.7
2017-Oct-07 03:30N 37°53' W 076°11'8 6.5
2017-Oct-07 02:13N 37°58' W 076°19'2 7.3
2017-Oct-07 01:56N 37°60' W 076°21'3 7.3
2017-Oct-07 01:29N 38°01' W 076°25'4 7.3
2017-Oct-07 00:59N 38°02' W 076°29'3 6.1
2017-Oct-07 00:30N 38°02' W 076°33'1 2.7
2017-Oct-06 23:58N 38°02' W 076°34'0 0.0
2017-Oct-06 23:29N 38°02' W 076°35'2 3.9
2017-Oct-06 23:00N 38°02' W 076°32'4 7.1
2017-Oct-06 22:29N 38°02' W 076°28'7 7.2
2017-Oct-06 21:30N 38°01' W 076°19'30 6.2
2017-Oct-06 16:39N 38°17' W 075°46'9 1.3
2017-Oct-06 09:49N 38°22' W 075°36'0 0.0
2017-Oct-06 09:28N 38°22' W 075°36'0 0.0
2017-Oct-06 08:59N 38°22' W 075°36'0 0.2
2017-Oct-06 08:29N 38°22' W 075°36'0 0.3
2017-Oct-06 07:51N 38°22' W 075°36'0 0.0
2017-Oct-06 07:30N 38°22' W 075°36'0 0.0
2017-Oct-06 07:00N 38°22' W 075°36'0 0.0
2017-Oct-06 06:30N 38°22' W 075°36'0 0.0
2017-Oct-06 06:00N 38°22' W 075°36'0 0.0
2017-Oct-06 05:30N 38°22' W 075°36'0 0.0
2017-Oct-06 04:38N 38°22' W 075°36'0 0.0
2017-Oct-06 04:30N 38°22' W 075°36'0 0.0
2017-Oct-06 04:00N 38°22' W 075°36'0 0.0
2017-Oct-06 03:29N 38°22' W 075°36'5 1.6
2017-Oct-06 00:02N 38°21' W 075°43'1 2.0
2017-Oct-05 23:43N 38°20' W 075°44'1 2.9
2017-Oct-05 23:23N 38°19' W 075°44'2 4.2
2017-Oct-05 22:59N 38°18' W 075°46'3 4.4
2017-Oct-05 22:24N 38°16' W 075°47'14 4.7
2017-Oct-05 19:33N 38°06' W 075°58'1 7.2
2017-Oct-05 19:23N 38°04' W 075°58'29 5.3
2017-Oct-05 13:53N 37°42' W 076°21'0 0.2
2017-Oct-05 12:27N 37°42' W 076°21'4 1.2
2017-Oct-05 08:50N 37°39' W 076°17'2 7.5
2017-Oct-05 08:30N 37°38' W 076°15'3 5.3
2017-Oct-05 08:00N 37°38' W 076°11'6 7.7
2017-Oct-05 07:13N 37°41' W 076°05'2 7.7
2017-Oct-05 07:00N 37°43' W 076°04'4 7.8
2017-Oct-05 06:27N 37°46' W 076°00'3 7.8
2017-Oct-05 06:00N 37°49' W 075°57'4 7.7
2017-Oct-05 05:30N 37°52' W 075°57'4 7.6
2017-Oct-05 04:58N 37°56' W 075°57'4 7.1
2017-Oct-05 04:22N 38°01' W 075°55'3 7.3
2017-Oct-05 04:00N 38°03' W 075°57'4 7.2
2017-Oct-05 03:23N 38°07' W 075°59'3 7.3
2017-Oct-05 03:00N 38°10' W 075°59'3 6.0
2017-Oct-05 02:31N 38°12' W 075°56'3 6.6
2017-Oct-05 02:00N 38°13' W 075°52'3 6.5
2017-Oct-05 01:30N 38°15' W 075°49'3 5.7
2017-Oct-05 00:59N 38°17' W 075°46'3 5.5
2017-Oct-05 00:31N 38°19' W 075°44'3 5.1
2017-Oct-04 23:51N 38°20' W 075°40'2 5.5
2017-Oct-04 23:25N 38°21' W 075°37'2 2.9
2017-Oct-04 22:54N 38°22' W 075°36'26 3.2
2017-Oct-04 14:55N 38°02' W 075°56'3 7.2
2017-Oct-04 14:28N 37°58' W 075°56'29 2.0
2017-Oct-04 00:13N 38°02' W 076°32'2 8.2
2017-Oct-03 23:58N 38°02' W 076°30'4 8.3
2017-Oct-03 23:30N 38°02' W 076°25'5 8.0
2017-Oct-03 22:55N 38°01' W 076°19'4 0.1
2017-Oct-02 13:28N 37°58' W 076°17'4 7.9
2017-Oct-02 12:55N 38°00' W 076°22'3 7.3
2017-Oct-02 12:31N 38°01' W 076°25'3 6.9
2017-Oct-02 12:01N 38°02' W 076°30'3 5.6
2017-Oct-02 11:30N 38°02' W 076°33'  

Dump ship's entire track history